createdAt,value
2022-12-26T00:02:10.559Z,100.00
2022-12-26T00:04:52.359Z,100.00
2022-12-26T00:07:25.716Z,100.00
2022-12-26T00:09:58.793Z,100.00
2022-12-26T00:12:31.139Z,100.00
2022-12-26T00:15:03.908Z,100.00
2022-12-26T00:17:36.289Z,100.00
2022-12-26T00:20:09.687Z,100.00
2022-12-26T00:22:41.976Z,100.00
2022-12-26T00:25:15.254Z,100.00
2022-12-26T00:27:47.836Z,100.00
2022-12-26T00:30:20.253Z,100.00
2022-12-26T00:32:53.942Z,100.00
2022-12-26T00:35:26.328Z,100.00
2022-12-26T00:37:59.747Z,100.00
2022-12-26T00:40:32.838Z,100.00
2022-12-26T00:43:05.153Z,100.00
2022-12-26T00:45:37.469Z,100.00
2022-12-26T00:48:10.094Z,100.00
2022-12-26T00:50:42.510Z,100.00
2022-12-26T00:53:14.852Z,100.00
2022-12-26T00:55:48.746Z,100.00
2022-12-26T00:58:21.981Z,100.00
2022-12-26T01:00:55.055Z,100.00
2022-12-26T01:03:27.439Z,100.00
2022-12-26T01:06:02.595Z,100.00
2022-12-26T01:08:34.961Z,100.00
2022-12-26T01:11:11.681Z,100.00
2022-12-26T01:13:44.065Z,100.00
2022-12-26T01:16:18.932Z,100.00
2022-12-26T01:18:51.289Z,100.00
2022-12-26T01:21:23.696Z,100.00
2022-12-26T01:23:56.039Z,100.00
2022-12-26T01:26:29.173Z,100.00
2022-12-26T01:29:01.956Z,100.00
2022-12-26T01:31:34.410Z,100.00
2022-12-26T01:34:06.753Z,100.00
2022-12-26T01:36:39.201Z,100.00
2022-12-26T01:39:11.600Z,100.00
2022-12-26T01:41:44.656Z,100.00
2022-12-26T01:44:55.097Z,100.00
2022-12-26T01:47:38.463Z,100.00
2022-12-26T01:50:25.167Z,100.00
2022-12-26T01:53:02.469Z,100.00
2022-12-26T01:55:34.823Z,100.00
2022-12-26T01:58:12.416Z,100.00
2022-12-26T02:00:44.882Z,100.00
2022-12-26T02:03:36.051Z,100.00
2022-12-26T02:06:10.301Z,100.00
2022-12-26T02:08:44.831Z,100.00
2022-12-26T02:11:21.258Z,100.00
2022-12-26T02:13:54.837Z,100.00
2022-12-26T02:16:27.361Z,100.00
2022-12-26T02:18:59.859Z,100.00
2022-12-26T02:22:10.282Z,100.00
2022-12-26T02:25:03.373Z,100.00
2022-12-26T02:27:52.729Z,100.00
2022-12-26T02:30:36.540Z,100.00
2022-12-26T02:33:25.402Z,100.00
2022-12-26T02:36:22.326Z,100.00
2022-12-26T02:39:44.411Z,100.00
2022-12-26T02:42:09.421Z,100.00
2022-12-26T02:45:04.983Z,100.00
2022-12-26T02:47:46.352Z,100.00
2022-12-26T02:50:48.511Z,100.00
2022-12-26T02:53:50.643Z,100.00
2022-12-26T02:56:49.251Z,100.00
2022-12-26T02:59:55.052Z,100.00
2022-12-26T03:02:52.801Z,100.00
2022-12-26T03:05:49.605Z,100.00
2022-12-26T03:08:48.355Z,100.00
2022-12-26T03:11:40.842Z,100.00
2022-12-26T03:14:17.115Z,100.00
2022-12-26T03:17:15.032Z,100.00
2022-12-26T03:20:02.180Z,100.00
2022-12-26T03:22:40.742Z,100.00
2022-12-26T03:25:37.529Z,100.00
2022-12-26T03:28:10.003Z,100.00
2022-12-26T03:30:48.782Z,100.00
2022-12-26T03:33:44.610Z,100.00
2022-12-26T03:36:24.066Z,100.00
2022-12-26T03:39:07.016Z,100.00
2022-12-26T03:42:05.744Z,100.00
2022-12-26T03:45:05.533Z,100.00
2022-12-26T03:48:00.247Z,100.00
2022-12-26T03:50:54.960Z,100.00
2022-12-26T03:54:05.111Z,100.00
2022-12-26T03:57:03.689Z,100.00
2022-12-26T04:00:00.398Z,100.00
2022-12-26T04:02:53.129Z,100.00
2022-12-26T04:05:44.747Z,100.00
2022-12-26T04:08:41.851Z,100.00
2022-12-26T04:11:35.283Z,100.00
2022-12-26T04:14:36.917Z,100.00
2022-12-26T04:17:34.960Z,100.00
2022-12-26T04:20:16.391Z,100.00
2022-12-26T04:23:12.108Z,100.00
2022-12-26T04:26:07.738Z,100.00
2022-12-26T04:28:58.296Z,100.00
2022-12-26T04:31:54.612Z,100.00
2022-12-26T04:34:55.965Z,100.00
2022-12-26T04:37:48.502Z,100.00
2022-12-26T04:40:44.392Z,100.00
2022-12-26T04:43:49.689Z,100.00
2022-12-26T04:46:25.288Z,100.00
2022-12-26T04:49:17.837Z,100.00
2022-12-26T04:51:50.904Z,100.00
2022-12-26T04:54:23.363Z,100.00
2022-12-26T04:56:55.918Z,100.00
2022-12-26T04:59:28.636Z,100.00
2022-12-26T05:02:19.742Z,100.00
2022-12-26T05:05:10.980Z,100.00
2022-12-26T05:08:01.691Z,100.00
2022-12-26T05:10:34.073Z,100.00
2022-12-26T05:13:06.336Z,100.00
2022-12-26T05:15:53.393Z,100.00
2022-12-26T05:18:43.520Z,100.00
2022-12-26T05:21:36.972Z,100.00
2022-12-26T05:24:28.232Z,100.00
2022-12-26T05:27:18.680Z,100.00
2022-12-26T05:29:51.095Z,100.00
2022-12-26T05:32:41.548Z,100.00
2022-12-26T05:35:13.931Z,100.00
2022-12-26T05:37:46.982Z,100.00
2022-12-26T05:40:19.359Z,100.00
2022-12-26T05:42:51.759Z,100.00
2022-12-26T05:45:24.233Z,100.00
2022-12-26T05:47:58.544Z,100.00
2022-12-26T05:50:30.832Z,100.00
2022-12-26T05:53:04.208Z,100.00
2022-12-26T05:55:36.538Z,100.00
2022-12-26T05:58:08.996Z,100.00
2022-12-26T06:00:41.323Z,100.00
2022-12-26T06:03:13.901Z,100.00
2022-12-26T06:05:46.293Z,100.00
2022-12-26T06:08:19.344Z,100.00
2022-12-26T06:10:51.714Z,100.00
2022-12-26T06:13:24.425Z,100.00
2022-12-26T06:15:57.857Z,100.00
2022-12-26T06:18:30.568Z,100.00
2022-12-26T06:21:05.484Z,100.00
2022-12-26T06:23:39.171Z,100.00
2022-12-26T06:26:12.239Z,100.00
2022-12-26T06:28:45.990Z,100.00
2022-12-26T06:31:21.695Z,100.00
2022-12-26T06:33:57.881Z,100.00
2022-12-26T06:36:30.437Z,100.00
2022-12-26T06:39:03.547Z,100.00
2022-12-26T06:41:35.873Z,100.00
2022-12-26T06:44:16.123Z,100.00
2022-12-26T06:46:50.429Z,100.00
2022-12-26T06:49:32.209Z,100.00
2022-12-26T06:52:05.544Z,100.00
2022-12-26T06:54:38.834Z,100.00
2022-12-26T06:57:11.200Z,100.00
2022-12-26T06:59:43.612Z,100.00
2022-12-26T07:02:16.043Z,100.00
2022-12-26T07:04:48.564Z,100.00
2022-12-26T07:07:20.902Z,100.00
2022-12-26T07:09:53.992Z,100.00
2022-12-26T07:12:26.288Z,100.00
2022-12-26T07:15:01.580Z,100.00
2022-12-26T07:17:36.384Z,100.00
2022-12-26T07:20:10.549Z,100.00
2022-12-26T07:22:42.869Z,100.00
2022-12-26T07:25:16.015Z,100.00
2022-12-26T07:27:52.183Z,100.00
2022-12-26T07:30:24.572Z,100.00
2022-12-26T07:32:58.396Z,100.00
2022-12-26T07:35:30.808Z,100.00
2022-12-26T07:38:03.112Z,100.00
2022-12-26T07:40:36.205Z,100.00
2022-12-26T07:43:08.507Z,100.00
2022-12-26T07:45:45.590Z,100.00
2022-12-26T07:48:18.551Z,100.00
2022-12-26T07:50:51.447Z,100.00
2022-12-26T07:53:23.728Z,100.00
2022-12-26T07:55:59.233Z,100.00
2022-12-26T07:58:31.693Z,100.00
2022-12-26T08:01:05.871Z,100.00
2022-12-26T08:03:38.343Z,100.00
2022-12-26T08:06:11.324Z,100.00
2022-12-26T08:08:50.256Z,100.00
2022-12-26T08:11:24.700Z,100.00
2022-12-26T08:13:57.371Z,100.00
2022-12-26T08:16:30.546Z,100.00
2022-12-26T08:19:03.344Z,100.00
2022-12-26T08:21:35.764Z,100.00
2022-12-26T08:24:08.208Z,100.00
2022-12-26T08:26:41.320Z,100.00
2022-12-26T08:29:13.640Z,100.00
2022-12-26T08:31:46.077Z,100.00
2022-12-26T08:34:18.652Z,100.00
2022-12-26T08:36:51.559Z,100.00
2022-12-26T08:39:23.897Z,100.00
2022-12-26T08:41:56.882Z,100.00
2022-12-26T08:44:29.455Z,100.00
2022-12-26T08:47:01.913Z,99.62
2022-12-26T08:49:34.213Z,99.92
2022-12-26T08:52:07.184Z,99.41
2022-12-26T08:54:39.503Z,95.08
2022-12-26T08:57:13.205Z,94.53
2022-12-26T08:59:45.524Z,96.72
2022-12-26T09:02:18.073Z,94.07
2022-12-26T09:04:50.501Z,91.82
2022-12-26T09:07:24.219Z,93.37
2022-12-26T09:09:56.608Z,93.25
2022-12-26T09:12:29.613Z,93.52
2022-12-26T09:15:01.957Z,92.44
2022-12-26T09:17:34.430Z,93.05
2022-12-26T09:20:07.854Z,89.08
2022-12-26T09:22:51.975Z,89.08
2022-12-26T09:25:25.526Z,87.77
2022-12-26T09:27:59.516Z,85.58
2022-12-26T09:30:32.027Z,84.81
2022-12-26T09:33:07.089Z,84.69
2022-12-26T09:35:39.636Z,83.14
2022-12-26T09:38:12.049Z,79.54
2022-12-26T09:40:55.180Z,77.63
2022-12-26T09:43:49.802Z,79.73
2022-12-26T09:46:30.568Z,78.04
2022-12-26T09:49:09.935Z,77.56
2022-12-26T09:51:49.227Z,75.80
2022-12-26T09:54:31.141Z,75.77
2022-12-26T09:57:14.814Z,74.68
2022-12-26T09:59:53.869Z,72.45
2022-12-26T10:02:26.569Z,71.50
2022-12-26T10:04:59.238Z,72.50
2022-12-26T10:07:40.228Z,70.63
2022-12-26T10:10:16.091Z,70.29
2022-12-26T10:12:58.039Z,66.78
2022-12-26T10:15:41.601Z,65.37
2022-12-26T10:18:29.786Z,62.86
2022-12-26T10:21:15.766Z,63.46
2022-12-26T10:23:51.197Z,62.56
2022-12-26T10:26:29.611Z,60.75
2022-12-26T10:29:10.575Z,60.18
2022-12-26T10:31:47.967Z,56.86
2022-12-26T10:34:24.089Z,57.81
2022-12-26T10:37:00.357Z,54.52
2022-12-26T10:39:37.161Z,55.11
2022-12-26T10:42:22.054Z,53.33
2022-12-26T10:44:54.530Z,53.68
2022-12-26T10:47:30.304Z,52.27
2022-12-26T10:50:03.900Z,51.09
2022-12-26T10:52:39.580Z,48.83
2022-12-26T10:55:28.492Z,48.26
2022-12-26T10:58:09.105Z,48.04
2022-12-26T11:00:41.741Z,47.10
2022-12-26T11:03:17.034Z,46.76
2022-12-26T11:06:08.804Z,45.23
2022-12-26T11:08:48.830Z,46.31
2022-12-26T11:11:24.328Z,46.61
2022-12-26T11:14:02.114Z,46.34
2022-12-26T11:16:38.491Z,45.35
2022-12-26T11:19:26.770Z,45.83
2022-12-26T11:22:22.460Z,45.04
2022-12-26T11:25:18.435Z,44.68
2022-12-26T11:27:52.773Z,44.58
2022-12-26T11:30:30.326Z,43.80
2022-12-26T11:33:24.411Z,43.54
2022-12-26T11:36:10.644Z,44.14
2022-12-26T11:38:49.783Z,43.07
2022-12-26T11:41:39.762Z,44.27
2022-12-26T11:44:17.611Z,42.95
2022-12-26T11:46:54.773Z,43.21
2022-12-26T11:49:31.873Z,43.07
2022-12-26T11:52:34.291Z,43.31
2022-12-26T11:55:27.076Z,44.70
2022-12-26T11:58:05.490Z,44.77
2022-12-26T12:00:40.506Z,44.01
2022-12-26T12:03:15.887Z,44.61
2022-12-26T12:05:54.869Z,43.97
2022-12-26T12:08:36.765Z,42.84
2022-12-26T12:11:20.622Z,43.09
2022-12-26T12:14:12.356Z,44.14
2022-12-26T12:16:54.046Z,44.81
2022-12-26T12:19:43.958Z,43.25
2022-12-26T12:22:35.128Z,44.75
2022-12-26T12:25:36.711Z,43.79
2022-12-26T12:28:28.120Z,43.84
2022-12-26T12:31:07.950Z,44.94
2022-12-26T12:33:49.266Z,44.52
2022-12-26T12:36:28.819Z,44.72
2022-12-26T12:39:10.309Z,44.03
2022-12-26T12:42:05.608Z,44.00
2022-12-26T12:44:56.912Z,44.57
2022-12-26T12:47:40.101Z,44.66
2022-12-26T12:50:22.802Z,46.06
2022-12-26T12:53:05.168Z,45.75
2022-12-26T12:55:59.206Z,44.26
2022-12-26T12:58:41.178Z,43.69
2022-12-26T13:01:18.509Z,44.13
2022-12-26T13:03:57.628Z,44.84
2022-12-26T13:06:36.180Z,44.77
2022-12-26T13:09:14.964Z,44.85
2022-12-26T13:11:52.277Z,44.24
2022-12-26T13:14:28.684Z,45.55
2022-12-26T13:17:05.892Z,46.07
2022-12-26T13:19:48.647Z,45.27
2022-12-26T13:22:26.688Z,44.72
2022-12-26T13:25:01.493Z,45.40
2022-12-26T13:27:37.740Z,45.65
2022-12-26T13:30:14.998Z,45.95
2022-12-26T13:32:48.133Z,45.92
2022-12-26T13:35:55.419Z,45.63
2022-12-26T13:39:00.996Z,45.50
2022-12-26T13:41:53.219Z,46.40
2022-12-26T13:44:26.904Z,46.08
2022-12-26T13:47:00.221Z,46.04
2022-12-26T13:49:35.751Z,46.86
2022-12-26T13:52:31.259Z,47.29
2022-12-26T13:55:41.454Z,46.49
2022-12-26T13:58:48.772Z,45.88
2022-12-26T14:01:36.422Z,47.03
2022-12-26T14:04:31.458Z,46.21
2022-12-26T14:07:21.071Z,46.18
2022-12-26T14:10:02.861Z,46.43
2022-12-26T14:12:46.477Z,47.38
2022-12-26T14:15:29.453Z,46.66
2022-12-26T14:18:32.588Z,46.28
2022-12-26T14:21:39.839Z,46.90
2022-12-26T14:24:24.555Z,47.48
2022-12-26T14:27:16.130Z,48.20
2022-12-26T14:29:58.868Z,48.85
2022-12-26T14:32:41.600Z,50.18
2022-12-26T14:35:26.351Z,49.72
2022-12-26T14:38:11.752Z,49.24
2022-12-26T14:40:58.674Z,51.53
2022-12-26T14:43:37.989Z,50.59
2022-12-26T14:46:43.696Z,51.13
2022-12-26T14:49:23.044Z,52.17
2022-12-26T14:52:15.537Z,52.15
2022-12-26T14:54:51.481Z,52.73
2022-12-26T14:57:45.838Z,53.62
2022-12-26T15:00:35.131Z,53.80
2022-12-26T15:03:30.150Z,54.70
2022-12-26T15:06:37.272Z,54.32
2022-12-26T15:09:23.151Z,54.75
2022-12-26T15:12:31.314Z,55.29
2022-12-26T15:15:31.926Z,56.51
2022-12-26T15:18:26.661Z,56.63
2022-12-26T15:21:24.679Z,56.72
2022-12-26T15:24:22.763Z,57.11
2022-12-26T15:27:41.128Z,56.86
2022-12-26T15:30:20.224Z,57.58
2022-12-26T15:33:01.432Z,56.90
2022-12-26T15:35:39.033Z,55.64
2022-12-26T15:38:19.722Z,56.24
2022-12-26T15:40:59.604Z,57.36
2022-12-26T15:43:48.909Z,59.47
2022-12-26T15:46:26.956Z,59.38
2022-12-26T15:49:24.554Z,59.01
2022-12-26T15:52:05.536Z,60.01
2022-12-26T15:55:13.392Z,64.08
2022-12-26T15:57:54.417Z,62.20
2022-12-26T16:00:29.807Z,62.54
2022-12-26T16:03:28.814Z,62.71
2022-12-26T16:06:19.581Z,62.64
2022-12-26T16:09:18.733Z,64.10
2022-12-26T16:11:55.372Z,63.17
2022-12-26T16:14:32.904Z,63.90
2022-12-26T16:17:21.857Z,63.92
2022-12-26T16:19:55.549Z,64.10
2022-12-26T16:22:48.695Z,63.97
2022-12-26T16:25:23.636Z,63.87
2022-12-26T16:27:57.935Z,63.94
2022-12-26T16:30:35.594Z,63.77
2022-12-26T16:33:08.261Z,64.44
2022-12-26T16:35:42.119Z,64.65
2022-12-26T16:38:17.971Z,64.72
2022-12-26T16:40:51.835Z,64.98
2022-12-26T16:43:27.747Z,66.28
2022-12-26T16:46:04.281Z,66.50
2022-12-26T16:48:36.852Z,66.71
2022-12-26T16:51:31.957Z,66.68
2022-12-26T16:54:17.011Z,67.71
2022-12-26T16:56:53.419Z,67.72
2022-12-26T16:59:34.519Z,67.51
2022-12-26T17:02:15.269Z,68.63
2022-12-26T17:04:58.388Z,68.65
2022-12-26T17:07:32.731Z,69.64
2022-12-26T17:10:12.320Z,69.15
2022-12-26T17:12:47.280Z,69.43
2022-12-26T17:15:22.589Z,69.55
2022-12-26T17:17:55.144Z,70.65
2022-12-26T17:20:34.729Z,70.24
2022-12-26T17:23:33.709Z,70.25
2022-12-26T17:26:23.524Z,71.39
2022-12-26T17:28:55.781Z,71.57
2022-12-26T17:31:34.431Z,71.55
2022-12-26T17:34:12.682Z,71.24
2022-12-26T17:37:17.761Z,71.18
2022-12-26T17:39:37.402Z,72.32
2022-12-26T17:42:13.267Z,72.45
2022-12-26T17:44:45.819Z,72.13
2022-12-26T17:47:21.670Z,72.49
2022-12-26T17:49:55.472Z,72.46
2022-12-26T17:52:29.128Z,73.66
2022-12-26T17:55:03.887Z,73.33
2022-12-26T17:57:37.085Z,73.15
2022-12-26T18:00:16.106Z,74.42
2022-12-26T18:02:48.956Z,74.65
2022-12-26T18:05:21.749Z,75.82
2022-12-26T18:07:56.029Z,75.28
2022-12-26T18:10:32.891Z,75.38
2022-12-26T18:13:09.599Z,75.81
2022-12-26T18:15:42.012Z,76.18
2022-12-26T18:18:23.252Z,76.40
2022-12-26T18:20:55.791Z,77.30
2022-12-26T18:23:28.565Z,76.28
2022-12-26T18:26:02.969Z,77.26
2022-12-26T18:28:36.201Z,77.67
2022-12-26T18:31:12.175Z,77.25
2022-12-26T18:33:44.824Z,77.56
2022-12-26T18:36:17.812Z,77.20
2022-12-26T18:38:50.254Z,77.20
2022-12-26T18:41:24.442Z,77.33
2022-12-26T18:43:59.146Z,77.96
2022-12-26T18:46:31.796Z,77.95
2022-12-26T18:49:06.191Z,77.73
2022-12-26T18:51:39.823Z,77.01
2022-12-26T18:54:12.501Z,77.29
2022-12-26T18:56:45.767Z,77.01
2022-12-26T18:59:19.495Z,77.14
2022-12-26T19:01:52.417Z,76.87
2022-12-26T19:04:25.644Z,76.94
2022-12-26T19:06:59.215Z,76.83
2022-12-26T19:09:32.392Z,77.23
2022-12-26T19:12:06.995Z,77.32
2022-12-26T19:14:42.080Z,77.64
2022-12-26T19:17:15.198Z,78.80
2022-12-26T19:19:48.278Z,77.96
2022-12-26T19:22:21.165Z,78.13
2022-12-26T19:24:53.750Z,78.10
2022-12-26T19:27:26.120Z,78.69
2022-12-26T19:29:59.268Z,78.68
2022-12-26T19:32:31.599Z,78.31
2022-12-26T19:35:05.399Z,78.39
2022-12-26T19:37:38.069Z,78.35
2022-12-26T19:40:11.769Z,78.34
2022-12-26T19:42:44.210Z,80.37
2022-12-26T19:45:17.387Z,80.54
2022-12-26T19:47:49.744Z,80.55
2022-12-26T19:50:22.128Z,81.26
2022-12-26T19:52:54.484Z,81.35
2022-12-26T19:55:27.042Z,82.08
2022-12-26T19:57:59.397Z,82.48
2022-12-26T20:00:32.517Z,81.95
2022-12-26T20:03:04.945Z,81.85
2022-12-26T20:05:37.861Z,82.32
2022-12-26T20:08:10.704Z,82.87
2022-12-26T20:10:43.064Z,81.96
2022-12-26T20:13:15.595Z,82.56
2022-12-26T20:15:48.694Z,82.80
2022-12-26T20:18:21.000Z,82.57
2022-12-26T20:20:53.745Z,82.71
2022-12-26T20:23:26.083Z,82.54
2022-12-26T20:25:58.607Z,83.40
2022-12-26T20:28:30.905Z,83.38
2022-12-26T20:31:11.492Z,83.13
2022-12-26T20:33:46.872Z,83.68
2022-12-26T20:36:21.175Z,84.19
2022-12-26T20:38:56.485Z,84.35
2022-12-26T20:41:29.873Z,84.12
2022-12-26T20:44:02.205Z,83.58
2022-12-26T20:46:35.776Z,83.48
2022-12-26T20:49:09.187Z,85.67
2022-12-26T20:51:43.408Z,85.41
2022-12-26T20:54:18.934Z,85.99
2022-12-26T20:56:52.514Z,86.73
2022-12-26T20:59:26.823Z,87.48
2022-12-26T21:02:00.492Z,87.31
2022-12-26T21:04:32.936Z,88.27
2022-12-26T21:07:05.366Z,88.87
2022-12-26T21:09:42.465Z,87.76
2022-12-26T21:12:18.265Z,88.44
2022-12-26T21:14:50.788Z,88.40
2022-12-26T21:17:23.964Z,88.88
2022-12-26T21:19:56.244Z,88.63
2022-12-26T21:22:28.731Z,87.61
2022-12-26T21:25:01.585Z,87.82
2022-12-26T21:27:35.152Z,88.92
2022-12-26T21:30:08.439Z,89.48
2022-12-26T21:32:41.530Z,91.16
2022-12-26T21:35:14.226Z,90.56
2022-12-26T21:37:51.718Z,90.81
2022-12-26T21:40:26.834Z,90.29
2022-12-26T21:42:59.230Z,90.33
2022-12-26T21:45:31.549Z,89.46
2022-12-26T21:48:04.967Z,90.21
2022-12-26T21:50:37.565Z,90.50
2022-12-26T21:53:09.975Z,89.80
2022-12-26T21:55:42.307Z,90.21
2022-12-26T21:58:14.704Z,89.47
2022-12-26T22:00:47.055Z,88.99
2022-12-26T22:03:38.280Z,89.17
2022-12-26T22:06:15.855Z,89.18
2022-12-26T22:08:48.255Z,89.09
2022-12-26T22:11:53.152Z,89.22
2022-12-26T22:14:25.516Z,89.58
2022-12-26T22:16:58.397Z,88.80
2022-12-26T22:19:31.433Z,88.01
2022-12-26T22:22:03.766Z,87.64
2022-12-26T22:24:36.130Z,87.47
2022-12-26T22:27:08.438Z,86.88
2022-12-26T22:29:40.809Z,87.21
2022-12-26T22:32:13.124Z,87.18
2022-12-26T22:34:46.195Z,87.45
2022-12-26T22:37:18.542Z,87.31
2022-12-26T22:39:50.926Z,86.56
2022-12-26T22:42:31.401Z,87.48
2022-12-26T22:45:04.422Z,88.03
2022-12-26T22:47:36.715Z,87.85
2022-12-26T22:50:14.523Z,88.34
2022-12-26T22:52:46.894Z,88.01
2022-12-26T22:55:19.272Z,88.15
2022-12-26T22:57:52.901Z,88.38
2022-12-26T23:00:26.175Z,89.00
2022-12-26T23:02:58.570Z,88.73
2022-12-26T23:05:32.143Z,88.49
2022-12-26T23:08:05.772Z,89.06
2022-12-26T23:10:38.865Z,89.06
2022-12-26T23:13:12.268Z,89.14
2022-12-26T23:15:53.584Z,88.86
2022-12-26T23:18:53.059Z,90.00
2022-12-26T23:21:44.303Z,88.98
2022-12-26T23:24:20.019Z,89.77
2022-12-26T23:26:53.929Z,89.05
2022-12-26T23:29:44.529Z,88.07
2022-12-26T23:32:16.883Z,88.95
2022-12-26T23:34:49.164Z,89.20
2022-12-26T23:37:22.227Z,88.83
2022-12-26T23:39:54.554Z,88.90
2022-12-26T23:42:27.027Z,89.43
2022-12-26T23:44:59.599Z,89.65
2022-12-26T23:47:35.353Z,89.52
2022-12-26T23:50:09.171Z,90.54
2022-12-26T23:52:43.413Z,90.78
2022-12-26T23:55:15.778Z,90.47
2022-12-26T23:57:48.579Z,91.32
